Time;durP1;ratioP1;P1;durP2;ratioP2;P2;SDS_P1;SDS_P2;PMS_P1;PMS_P2;Temp;Humidity;BMP_temperature;BMP_pressure;BME280_temperature;BME280_humidity;BME280_pressure;Samples;Min_cycle;Max_cycle;Signal;HPM_P1;HPM_P2
2022/09/23 00:01:09;;;;;;;7.50;6.00;;;10.70;99.90;;;;;;5041770;28;20244;-87
2022/09/23 00:03:37;;;;;;;7.17;6.33;;;10.70;99.90;;;;;;5077192;28;20212;-88
2022/09/23 00:06:11;;;;;;;8.83;5.90;;;10.70;99.90;;;;;;5076184;28;20229;-86
2022/09/23 00:08:38;;;;;;;5.97;4.67;;;10.80;99.90;;;;;;5072886;28;20259;-87
2022/09/23 00:11:11;;;;;;;6.43;5.73;;;10.70;99.90;;;;;;5092802;28;20219;-87
2022/09/23 00:13:39;;;;;;;7.70;6.50;;;10.70;99.90;;;;;;5078697;28;20181;-88
2022/09/23 00:16:08;;;;;;;11.77;6.87;;;10.70;99.90;;;;;;5074335;28;20217;-87
2022/09/23 00:18:34;;;;;;;5.87;5.23;;;10.70;99.90;;;;;;5075713;28;20243;-87
2022/09/23 00:21:09;;;;;;;8.30;5.97;;;10.70;99.90;;;;;;5040455;28;20240;-89
2022/09/23 00:23:36;;;;;;;9.50;7.00;;;10.70;99.90;;;;;;5073528;28;20540;-89
2022/09/23 00:26:04;;;;;;;10.33;6.50;;;10.70;99.90;;;;;;5072153;28;20215;-87
2022/09/23 00:28:30;;;;;;;7.30;5.77;;;10.70;99.90;;;;;;5073165;28;20232;-89
2022/09/23 00:31:05;;;;;;;6.70;5.23;;;10.70;99.90;;;;;;5038655;28;20272;-89
2022/09/23 00:33:31;;;;;;;7.03;6.33;;;10.70;99.90;;;;;;5075012;28;20276;-90
2022/09/23 00:36:01;;;;;;;7.47;6.40;;;10.70;99.90;;;;;;5041329;28;20216;-86
2022/09/23 00:38:28;;;;;;;7.33;6.00;;;10.60;99.90;;;;;;5057019;28;20315;-89
2022/09/23 00:40:54;;;;;;;9.17;7.03;;;10.60;99.90;;;;;;5074183;28;20816;-87
2022/09/23 00:43:35;;;;;;;7.57;6.07;;;10.60;99.90;;;;;;5057339;28;20189;-89
2022/09/23 00:46:01;;;;;;;6.40;5.67;;;10.60;99.90;;;;;;5059085;28;20221;-87
2022/09/23 00:48:27;;;;;;;8.47;6.50;;;10.70;99.90;;;;;;5058082;28;20233;-87
2022/09/23 00:50:53;;;;;;;10.60;7.27;;;10.70;99.90;;;;;;5057368;28;20224;-89
2022/09/23 00:53:22;;;;;;;7.63;6.03;;;10.70;99.90;;;;;;5074443;28;20267;-87
2022/09/23 00:55:53;;;;;;;19.57;6.50;;;10.70;99.90;;;;;;5073993;28;20590;-89
2022/09/23 00:58:24;;;;;;;7.87;7.07;;;10.70;99.90;;;;;;5075916;28;20793;-87
2022/09/23 01:00:50;;;;;;;5.87;5.30;;;10.70;99.90;;;;;;5090875;28;20238;-88
2022/09/23 01:03:17;;;;;;;7.40;6.63;;;10.80;99.90;;;;;;5074199;28;20229;-90
2022/09/23 01:05:43;;;;;;;6.77;6.00;;;10.80;99.90;;;;;;5057704;28;20308;-89
2022/09/23 01:08:11;;;;;;;6.27;5.63;;;10.80;99.90;;;;;;5073115;28;20344;-88
2022/09/23 01:10:51;;;;;;;8.77;6.50;;;10.80;99.90;;;;;;5056920;28;20188;-87
2022/09/23 01:13:42;;;;;;;9.27;6.27;;;10.80;99.90;;;;;;5072530;28;20211;-88
2022/09/23 01:16:14;;;;;;;8.73;5.80;;;10.80;99.90;;;;;;5071232;28;20217;-88
2022/09/23 01:19:18;;;;;;;8.23;6.53;;;10.90;99.90;;;;;;5073170;28;20217;-89
2022/09/23 01:22:09;;;;;;;7.70;5.53;;;10.90;99.90;;;;;;5049953;28;20599;-90
2022/09/23 01:25:12;;;;;;;9.03;5.87;;;10.90;99.90;;;;;;5076849;28;20216;-89
2022/09/23 01:27:50;;;;;;;18.83;7.37;;;10.90;99.90;;;;;;5073310;28;20270;-88
2022/09/23 01:30:42;;;;;;;7.40;6.00;;;10.90;99.90;;;;;;5074032;28;20224;-87
2022/09/23 01:33:23;;;;;;;10.83;5.27;;;10.80;99.90;;;;;;5073992;28;20282;-88
2022/09/23 01:36:01;;;;;;;8.27;6.67;;;10.80;99.90;;;;;;5071806;28;20213;-87
2022/09/23 01:38:48;;;;;;;9.27;7.40;;;10.80;99.90;;;;;;5073041;28;20272;-87
2022/09/23 01:41:42;;;;;;;8.63;5.73;;;10.70;99.90;;;;;;5073332;28;21735;-87
2022/09/23 01:44:14;;;;;;;8.93;6.47;;;10.70;99.90;;;;;;5059258;28;20225;-88
2022/09/23 01:46:42;;;;;;;9.33;6.83;;;10.60;99.90;;;;;;5073404;28;20175;-87
2022/09/23 01:49:21;;;;;;;9.83;6.97;;;10.50;99.90;;;;;;5074479;28;20831;-88
2022/09/23 01:52:35;;;;;;;8.43;7.03;;;10.50;99.90;;;;;;5071613;28;20642;-87
2022/09/23 01:55:07;;;;;;;10.83;7.33;;;10.40;99.90;;;;;;5044226;28;20457;-88
2022/09/23 01:58:03;;;;;;;12.03;5.93;;;10.40;99.90;;;;;;5072032;28;20224;-88
2022/09/23 02:00:34;;;;;;;7.60;6.90;;;10.40;99.90;;;;;;5074564;28;20219;-88
2022/09/23 02:03:14;;;;;;;8.30;7.03;;;10.40;99.90;;;;;;5089976;28;20716;-89
2022/09/23 02:05:55;;;;;;;6.87;6.17;;;10.40;99.90;;;;;;5072176;28;20758;-88
2022/09/23 02:08:41;;;;;;;10.43;6.67;;;10.40;99.90;;;;;;5074501;28;20712;-87
2022/09/23 02:11:14;;;;;;;7.17;6.03;;;10.30;99.90;;;;;;5073019;28;20618;-90
2022/09/23 02:13:48;;;;;;;11.13;7.00;;;10.30;99.90;;;;;;5074184;28;20217;-88
2022/09/23 02:16:24;;;;;;;12.70;6.97;;;10.30;99.90;;;;;;5072316;28;20935;-89
2022/09/23 02:19:03;;;;;;;11.37;6.60;;;10.20;99.90;;;;;;5074523;28;20247;-88
2022/09/23 02:21:34;;;;;;;9.73;7.07;;;10.20;99.90;;;;;;5073509;28;20259;-88
2022/09/23 02:24:16;;;;;;;16.97;7.70;;;10.20;99.90;;;;;;5075075;28;20223;-88
2022/09/23 02:27:00;;;;;;;13.10;8.03;;;10.20;99.90;;;;;;5075097;28;20584;-87
2022/09/23 02:29:38;;;;;;;12.90;7.50;;;10.10;99.90;;;;;;5072429;28;20223;-87
2022/09/23 02:32:23;;;;;;;7.57;6.77;;;10.00;99.90;;;;;;5070629;28;20200;-90
2022/09/23 02:35:05;;;;;;;9.07;7.20;;;10.00;99.90;;;;;;5070264;28;20185;-87
2022/09/23 02:37:51;;;;;;;10.07;7.37;;;10.00;99.90;;;;;;5072502;28;20177;-87
2022/09/23 02:40:22;;;;;;;12.03;6.43;;;10.00;99.90;;;;;;5071081;28;20213;-88
2022/09/23 02:43:13;;;;;;;11.60;7.07;;;9.90;99.90;;;;;;5074254;28;20232;-87
2022/09/23 02:45:39;;;;;;;8.03;6.23;;;9.90;99.90;;;;;;5071655;28;20220;-88
2022/09/23 02:48:17;;;;;;;8.03;7.03;;;9.90;99.90;;;;;;5040397;28;20228;-87
2022/09/23 02:50:44;;;;;;;9.63;8.00;;;9.90;99.90;;;;;;5070327;28;20305;-89
2022/09/23 02:53:10;;;;;;;8.97;5.90;;;9.90;99.90;;;;;;5071987;28;20578;-89
2022/09/23 02:55:36;;;;;;;10.83;8.03;;;9.90;99.90;;;;;;5044450;28;20188;-88
2022/09/23 02:58:04;;;;;;;9.47;8.10;;;9.90;99.90;;;;;;5059569;28;20751;-90
2022/09/23 03:01:20;;;;;;;9.57;7.07;;;9.90;99.90;;;;;;5075883;28;20216;-87
2022/09/23 03:04:03;;;;;;;8.87;7.37;;;9.80;99.90;;;;;;5073911;28;20546;-89
2022/09/23 03:06:59;;;;;;;9.33;7.27;;;9.80;99.90;;;;;;5077098;28;20213;-87
2022/09/23 03:09:37;;;;;;;7.57;6.77;;;9.80;99.90;;;;;;5074978;28;20228;-87
2022/09/23 03:12:15;;;;;;;11.80;7.80;;;9.80;99.90;;;;;;5077971;28;20274;-88
2022/09/23 03:15:04;;;;;;;10.33;7.73;;;9.80;99.90;;;;;;5077579;28;20218;-87
2022/09/23 03:17:42;;;;;;;13.23;8.67;;;9.80;99.90;;;;;;5074566;28;20217;-86
2022/09/23 03:20:21;;;;;;;13.47;8.77;;;9.80;99.90;;;;;;5078059;28;20230;-87
2022/09/23 03:23:01;;;;;;;13.10;8.70;;;9.80;99.90;;;;;;5074182;28;20172;-84
2022/09/23 03:25:30;;;;;;;12.73;7.57;;;9.80;99.90;;;;;;5075583;28;20287;-87
2022/09/23 03:27:59;;;;;;;13.37;7.77;;;9.70;99.90;;;;;;5073406;28;20235;-85
2022/09/23 03:30:25;;;;;;;15.27;8.13;;;9.70;99.90;;;;;;5058278;28;20220;-84
2022/09/23 03:32:52;;;;;;;11.60;8.10;;;9.70;99.90;;;;;;5059940;28;20217;-86
2022/09/23 03:35:19;;;;;;;12.83;8.27;;;9.60;99.90;;;;;;5058049;28;20217;-86
2022/09/23 03:37:57;;;;;;;12.30;8.77;;;9.60;99.90;;;;;;5058622;28;20212;-86
2022/09/23 03:40:34;;;;;;;12.73;8.90;;;9.60;99.90;;;;;;5077307;28;20212;-86
2022/09/23 03:43:01;;;;;;;9.47;7.83;;;9.60;99.90;;;;;;5076452;28;20212;-85
2022/09/23 03:45:31;;;;;;;13.27;7.60;;;9.60;99.90;;;;;;5058949;28;20249;-84
2022/09/23 03:47:57;;;;;;;10.07;8.00;;;9.60;99.90;;;;;;5073157;28;20242;-85
2022/09/23 03:50:23;;;;;;;14.03;8.13;;;9.60;99.90;;;;;;5076965;28;20212;-86
2022/09/23 03:52:49;;;;;;;13.27;8.90;;;9.60;99.90;;;;;;5075949;28;20203;-85
2022/09/23 03:55:17;;;;;;;11.57;8.40;;;9.60;99.90;;;;;;5056239;28;20217;-85
2022/09/23 03:57:44;;;;;;;11.93;8.37;;;9.50;99.90;;;;;;5074658;28;20221;-85
2022/09/23 04:00:10;;;;;;;16.03;9.10;;;9.50;99.90;;;;;;5073943;28;20217;-84
2022/09/23 04:02:36;;;;;;;17.50;9.63;;;9.50;99.90;;;;;;5057405;28;20213;-86
2022/09/23 04:05:02;;;;;;;12.40;8.90;;;9.50;99.90;;;;;;5071620;28;20193;-84
2022/09/23 04:07:28;;;;;;;10.83;8.13;;;9.50;99.90;;;;;;5057905;28;20226;-86
2022/09/23 04:09:54;;;;;;;12.50;9.10;;;9.50;99.90;;;;;;5058306;28;20327;-84
2022/09/23 04:12:20;;;;;;;11.97;7.63;;;9.50;99.90;;;;;;5057199;28;20225;-86
2022/09/23 04:14:46;;;;;;;12.17;9.00;;;9.50;99.90;;;;;;5074447;28;20217;-85
2022/09/23 04:17:12;;;;;;;19.30;9.57;;;9.50;99.90;;;;;;5073508;28;20213;-85
2022/09/23 04:19:38;;;;;;;10.73;8.90;;;9.50;99.90;;;;;;5074041;28;20181;-85
2022/09/23 04:22:04;;;;;;;17.77;10.57;;;9.60;99.90;;;;;;5078951;28;20352;-84
2022/09/23 04:24:30;;;;;;;12.53;9.10;;;9.60;99.90;;;;;;5049339;28;20239;-85
2022/09/23 04:26:56;;;;;;;13.03;9.83;;;9.70;99.90;;;;;;5071379;28;20686;-86
2022/09/23 04:29:23;;;;;;;15.47;10.40;;;9.70;99.90;;;;;;5057006;28;20217;-85
2022/09/23 04:31:50;;;;;;;13.77;9.90;;;9.70;99.90;;;;;;5057229;28;20193;-83
2022/09/23 04:34:16;;;;;;;11.07;8.70;;;9.70;99.90;;;;;;5057474;28;20197;-84
2022/09/23 04:36:46;;;;;;;15.27;9.67;;;9.70;99.90;;;;;;5056665;28;20414;-85
2022/09/23 04:39:13;;;;;;;10.63;8.27;;;9.70;99.90;;;;;;5091674;28;20303;-86
2022/09/23 04:41:40;;;;;;;14.97;8.07;;;9.70;99.90;;;;;;5072368;28;20216;-87
2022/09/23 04:44:05;;;;;;;12.63;9.50;;;9.80;99.90;;;;;;5055031;28;20217;-85
2022/09/23 04:46:31;;;;;;;16.30;9.27;;;9.80;99.90;;;;;;5074223;28;20204;-85
2022/09/23 04:48:57;;;;;;;12.37;8.90;;;9.80;99.90;;;;;;5071091;28;20236;-86
2022/09/23 04:51:25;;;;;;;13.53;8.17;;;9.80;99.90;;;;;;5074541;28;20273;-85
2022/09/23 04:53:53;;;;;;;12.27;8.30;;;9.80;99.90;;;;;;5073752;28;20216;-86
2022/09/23 04:56:25;;;;;;;14.73;10.10;;;9.80;99.90;;;;;;5075932;28;20209;-87
2022/09/23 04:58:51;;;;;;;16.77;11.77;;;9.80;99.90;;;;;;5074624;28;20212;-85
2022/09/23 05:01:24;;;;;;;16.23;9.87;;;9.80;99.90;;;;;;5074685;28;20182;-84
2022/09/23 05:03:52;;;;;;;12.90;8.13;;;9.90;99.90;;;;;;5073544;28;20265;-84
2022/09/23 05:06:19;;;;;;;11.77;9.07;;;9.80;99.90;;;;;;5068866;28;20221;-85
2022/09/23 05:08:50;;;;;;;16.13;9.83;;;9.80;99.90;;;;;;5073053;28;20248;-84
2022/09/23 05:11:17;;;;;;;14.73;9.97;;;9.90;99.90;;;;;;5075644;28;20220;-86
2022/09/23 05:13:44;;;;;;;15.63;9.37;;;9.90;99.90;;;;;;5072184;28;20229;-85
2022/09/23 05:16:13;;;;;;;14.50;8.53;;;9.90;99.90;;;;;;5053769;28;20214;-85
2022/09/23 05:18:41;;;;;;;11.47;7.60;;;9.90;99.90;;;;;;5073574;28;20236;-85
2022/09/23 05:21:09;;;;;;;12.97;7.50;;;9.90;99.90;;;;;;5073403;28;20693;-85
2022/09/23 05:23:36;;;;;;;13.63;9.00;;;9.80;99.90;;;;;;5074044;28;20232;-84
2022/09/23 05:26:13;;;;;;;17.77;9.13;;;9.90;99.90;;;;;;5074438;28;20209;-86
2022/09/23 05:28:39;;;;;;;14.73;8.70;;;9.90;99.90;;;;;;5072333;28;20205;-86
2022/09/23 05:31:14;;;;;;;13.57;8.23;;;10.00;99.90;;;;;;5070881;28;20209;-85
2022/09/23 05:33:42;;;;;;;13.97;8.80;;;10.00;99.90;;;;;;5072112;28;20224;-84
2022/09/23 05:36:08;;;;;;;16.33;9.10;;;10.00;99.90;;;;;;5074036;28;20228;-85
2022/09/23 05:38:35;;;;;;;12.13;8.80;;;10.10;99.90;;;;;;5073268;28;20212;-85
2022/09/23 05:41:06;;;;;;;11.63;7.83;;;10.10;99.90;;;;;;5074149;28;20645;-85
2022/09/23 05:43:32;;;;;;;12.33;8.00;;;10.10;99.90;;;;;;5071710;28;20216;-87
2022/09/23 05:46:05;;;;;;;11.60;8.67;;;10.20;99.90;;;;;;5087134;28;20316;-86
2022/09/23 05:48:32;;;;;;;11.97;8.43;;;10.20;99.90;;;;;;5071071;28;20232;-85
2022/09/23 05:50:58;;;;;;;13.73;8.37;;;10.20;99.90;;;;;;5071721;28;20227;-87
2022/09/23 05:53:25;;;;;;;12.50;8.97;;;10.30;99.90;;;;;;5073220;28;20241;-86
2022/09/23 05:55:53;;;;;;;13.70;9.07;;;10.30;99.90;;;;;;5070541;28;20194;-85
2022/09/23 05:58:20;;;;;;;10.43;8.60;;;10.40;99.90;;;;;;5070832;28;20596;-85
2022/09/23 06:00:48;;;;;;;15.03;11.27;;;10.40;99.90;;;;;;5073180;28;20219;-85
2022/09/23 06:03:15;;;;;;;14.23;8.77;;;10.40;99.90;;;;;;5075612;28;20669;-85
2022/09/23 06:05:41;;;;;;;17.27;10.03;;;10.50;99.90;;;;;;5073255;28;20219;-86
2022/09/23 06:08:08;;;;;;;16.10;8.97;;;10.60;99.90;;;;;;5072720;28;20244;-85
2022/09/23 06:10:38;;;;;;;14.03;9.43;;;10.70;99.90;;;;;;5072152;28;20208;-89
2022/09/23 06:13:05;;;;;;;11.40;8.33;;;10.70;99.90;;;;;;5056716;28;20232;-86
2022/09/23 06:15:31;;;;;;;12.60;8.83;;;10.80;99.90;;;;;;5072905;28;20216;-89
2022/09/23 06:17:58;;;;;;;13.83;8.87;;;10.80;99.90;;;;;;5056524;28;20498;-89
2022/09/23 06:20:23;;;;;;;16.93;7.93;;;11.00;99.90;;;;;;5071993;28;20213;-88
2022/09/23 06:22:49;;;;;;;12.13;8.13;;;11.00;99.90;;;;;;5075308;28;20192;-84
2022/09/23 06:25:17;;;;;;;12.87;9.47;;;11.10;99.90;;;;;;5055230;28;20185;-89
2022/09/23 06:27:53;;;;;;;11.33;8.33;;;11.10;99.90;;;;;;5038014;28;20224;-87
2022/09/23 06:30:19;;;;;;;13.60;9.67;;;11.10;99.90;;;;;;5074238;28;20240;-87
2022/09/23 06:32:53;;;;;;;14.33;10.03;;;11.20;99.90;;;;;;5074601;28;20219;-87
2022/09/23 06:35:22;;;;;;;14.77;9.23;;;11.30;99.90;;;;;;5075267;28;20223;-87
2022/09/23 06:37:48;;;;;;;13.67;7.53;;;11.40;99.90;;;;;;5076940;28;20246;-88
2022/09/23 06:40:14;;;;;;;11.97;9.60;;;11.50;99.90;;;;;;5077589;28;20231;-87
2022/09/23 06:42:41;;;;;;;18.63;9.33;;;11.50;99.90;;;;;;5061564;28;20219;-88
2022/09/23 06:45:13;;;;;;;14.10;8.20;;;11.40;99.90;;;;;;5076681;28;20241;-89
2022/09/23 06:47:40;;;;;;;14.00;9.53;;;11.50;99.90;;;;;;5075932;28;20708;-86
2022/09/23 06:50:07;;;;;;;12.93;10.00;;;11.50;99.90;;;;;;5077756;28;20871;-88
2022/09/23 06:52:33;;;;;;;13.70;9.20;;;11.70;99.90;;;;;;5079850;28;20178;-87
2022/09/23 06:55:00;;;;;;;13.07;8.27;;;11.90;99.90;;;;;;5058891;28;20293;-92
2022/09/23 06:57:29;;;;;;;11.80;8.70;;;11.90;99.90;;;;;;5076453;28;20229;-91
2022/09/23 06:59:57;;;;;;;11.77;8.33;;;11.80;99.90;;;;;;5092050;28;20257;-90
2022/09/23 07:02:24;;;;;;;11.97;9.60;;;11.80;99.90;;;;;;5074698;28;20221;-86
2022/09/23 07:04:50;;;;;;;18.23;8.47;;;11.90;99.90;;;;;;5062456;28;20275;-86
2022/09/23 07:07:17;;;;;;;10.33;8.70;;;12.00;99.90;;;;;;5075107;28;20189;-88
2022/09/23 07:09:44;;;;;;;12.40;7.60;;;12.00;99.90;;;;;;5058879;28;20212;-89
2022/09/23 07:12:10;;;;;;;12.80;7.57;;;12.00;99.90;;;;;;5072050;28;20305;-88
2022/09/23 07:14:36;;;;;;;12.90;8.70;;;12.00;99.90;;;;;;5057200;28;20224;-88
2022/09/23 07:17:02;;;;;;;10.87;7.80;;;12.10;99.90;;;;;;5055685;28;20189;-90
2022/09/23 07:19:28;;;;;;;13.87;8.50;;;12.10;99.90;;;;;;5058469;28;20188;-90
2022/09/23 07:21:54;;;;;;;10.77;8.10;;;12.10;99.90;;;;;;5073203;28;20274;-90
2022/09/23 07:24:20;;;;;;;17.73;8.80;;;12.20;99.90;;;;;;5076895;28;20216;-89
2022/09/23 07:26:45;;;;;;;12.43;8.13;;;12.30;99.90;;;;;;5060106;28;20681;-91
2022/09/23 07:29:14;;;;;;;10.43;7.63;;;12.40;99.90;;;;;;5038956;28;20229;-89
2022/09/23 07:31:40;;;;;;;13.67;8.07;;;12.50;99.90;;;;;;5077157;28;20185;-88
2022/09/23 07:34:10;;;;;;;13.77;8.73;;;12.60;99.90;;;;;;5078107;28;20215;-88
2022/09/23 07:36:39;;;;;;;10.13;7.23;;;12.80;99.90;;;;;;5075531;28;20279;-89
2022/09/23 07:39:06;;;;;;;13.73;7.40;;;12.80;99.90;;;;;;5075734;28;20288;-88
2022/09/23 07:41:33;;;;;;;14.07;8.43;;;13.00;99.90;;;;;;5071860;28;20221;-87
2022/09/23 07:43:59;;;;;;;17.57;8.10;;;13.20;99.90;;;;;;5070892;28;20244;-89
2022/09/23 07:46:28;;;;;;;12.33;7.10;;;13.30;99.90;;;;;;5059190;28;20284;-90
2022/09/23 07:48:54;;;;;;;14.27;8.53;;;13.50;99.90;;;;;;5078378;28;20701;-91
2022/09/23 07:51:29;;;;;;;13.03;8.30;;;13.80;99.90;;;;;;5073403;28;20213;-84
2022/09/23 07:53:55;;;;;;;12.87;7.80;;;13.90;99.90;;;;;;5071266;28;20887;-88
2022/09/23 07:56:25;;;;;;;12.03;8.00;;;14.10;99.90;;;;;;5073268;28;20590;-87
2022/09/23 07:59:02;;;;;;;11.13;7.33;;;14.30;99.90;;;;;;5070511;28;20194;-88
2022/09/23 08:01:32;;;;;;;10.60;6.90;;;14.50;99.90;;;;;;5078344;28;20278;-87
2022/09/23 08:04:01;;;;;;;10.00;6.87;;;14.70;99.90;;;;;;5071248;28;20204;-88
2022/09/23 08:06:26;;;;;;;13.23;7.63;;;15.00;99.90;;;;;;5073634;28;20224;-89
2022/09/23 08:08:55;;;;;;;11.97;7.17;;;15.20;99.90;;;;;;5057026;28;20278;-90
2022/09/23 08:11:22;;;;;;;11.83;6.77;;;15.40;99.90;;;;;;5072630;28;20212;-90
2022/09/23 08:13:48;;;;;;;8.70;6.53;;;15.50;99.90;;;;;;5041089;28;20680;-93
2022/09/23 08:16:14;;;;;;;14.40;7.57;;;15.70;99.90;;;;;;5041616;28;20225;-89
2022/09/23 08:18:42;;;;;;;8.30;6.47;;;15.80;99.90;;;;;;5054399;28;20348;-88
2022/09/23 08:21:08;;;;;;;8.43;7.17;;;15.90;99.90;;;;;;5059249;28;20769;-88
2022/09/23 08:23:34;;;;;;;11.47;6.33;;;15.80;99.90;;;;;;5040589;28;20319;-87
2022/09/23 08:26:02;;;;;;;10.57;7.30;;;15.80;99.90;;;;;;5073713;28;20257;-86
2022/09/23 08:28:28;;;;;;;10.70;7.10;;;15.80;99.90;;;;;;5070934;28;20258;-87
2022/09/23 08:30:54;;;;;;;10.80;6.10;;;15.80;99.90;;;;;;5059124;28;20221;-87
2022/09/23 08:33:21;;;;;;;10.50;6.23;;;15.80;99.90;;;;;;5069908;28;20209;-88
2022/09/23 08:35:46;;;;;;;9.63;6.50;;;15.70;99.90;;;;;;5071082;28;20205;-89
2022/09/23 08:38:12;;;;;;;9.23;6.20;;;15.70;99.90;;;;;;5057376;28;20220;-87
2022/09/23 08:40:41;;;;;;;8.13;6.23;;;15.70;99.90;;;;;;5039203;28;20196;-87
2022/09/23 08:43:14;;;;;;;9.17;6.53;;;15.80;99.90;;;;;;5075101;28;20221;-87
2022/09/23 08:45:42;;;;;;;9.73;6.70;;;15.80;99.90;;;;;;5069712;28;20258;-87
2022/09/23 08:48:18;;;;;;;11.70;6.50;;;16.00;99.90;;;;;;5055367;28;20252;-88
2022/09/23 08:50:50;;;;;;;9.90;6.67;;;16.00;99.90;;;;;;5070343;28;20267;-88
2022/09/23 08:53:19;;;;;;;9.40;7.27;;;16.00;99.90;;;;;;5072910;28;20282;-88
2022/09/23 08:55:47;;;;;;;10.47;7.33;;;16.00;99.90;;;;;;5074499;28;20195;-87
2022/09/23 08:58:26;;;;;;;13.37;7.07;;;16.00;99.90;;;;;;5071856;28;20232;-87
2022/09/23 09:01:20;;;;;;;11.33;6.40;;;16.00;99.90;;;;;;5070605;28;20580;-88
2022/09/23 09:03:52;;;;;;;8.50;6.73;;;15.90;99.90;;;;;;5073378;28;20220;-89
2022/09/23 09:06:42;;;;;;;8.67;7.30;;;15.90;99.90;;;;;;5069545;28;20249;-87
2022/09/23 09:09:31;;;;;;;10.33;6.40;;;16.00;99.90;;;;;;5067627;28;20667;-87
2022/09/23 09:12:05;;;;;;;11.30;7.67;;;15.90;99.90;;;;;;5070360;28;20233;-88
2022/09/23 09:14:47;;;;;;;13.33;8.47;;;15.90;99.90;;;;;;5074680;28;20689;-88
2022/09/23 09:17:23;;;;;;;10.90;7.00;;;15.90;99.90;;;;;;5068924;28;20216;-87
2022/09/23 09:20:00;;;;;;;8.60;6.90;;;15.90;99.90;;;;;;5072454;28;20670;-87
2022/09/23 09:22:51;;;;;;;11.30;7.90;;;15.90;99.90;;;;;;5073406;28;20223;-88
2022/09/23 09:25:35;;;;;;;11.67;7.03;;;15.90;99.90;;;;;;5072821;28;20205;-89
2022/09/23 09:28:10;;;;;;;12.10;6.73;;;16.10;99.90;;;;;;5070549;28;20259;-87
2022/09/23 09:30:36;;;;;;;9.93;7.13;;;16.20;99.90;;;;;;5074133;28;20578;-87
2022/09/23 09:33:14;;;;;;;12.13;7.33;;;16.40;99.90;;;;;;5039258;28;20219;-87
2022/09/23 09:36:19;;;;;;;11.33;8.23;;;16.40;99.90;;;;;;5074736;28;20693;-87
2022/09/23 09:38:46;;;;;;;8.63;7.10;;;16.50;99.90;;;;;;5073942;28;20244;-87
2022/09/23 09:41:16;;;;;;;14.80;8.70;;;16.50;99.90;;;;;;5073332;28;20220;-89
2022/09/23 09:43:56;;;;;;;12.23;7.40;;;16.40;99.90;;;;;;5054019;28;20177;-87
2022/09/23 09:46:45;;;;;;;12.77;7.87;;;16.40;99.90;;;;;;5069880;28;20209;-86
2022/09/23 09:49:33;;;;;;;10.63;8.87;;;16.40;99.90;;;;;;5075051;28;20231;-87
2022/09/23 09:52:22;;;;;;;10.90;6.97;;;16.50;99.90;;;;;;5077609;28;20682;-87
2022/09/23 09:54:49;;;;;;;9.80;7.40;;;16.70;99.90;;;;;;5072937;28;20223;-86
2022/09/23 09:57:37;;;;;;;13.50;7.67;;;16.60;99.90;;;;;;5071016;28;20693;-87
2022/09/23 10:00:25;;;;;;;11.97;7.20;;;16.70;99.90;;;;;;5071127;28;20281;-87
2022/09/23 10:03:02;;;;;;;13.13;7.93;;;16.80;99.90;;;;;;5069993;28;20670;-87
2022/09/23 10:05:32;;;;;;;11.60;7.17;;;16.90;99.90;;;;;;5070129;28;20226;-88
2022/09/23 10:08:23;;;;;;;10.53;7.60;;;17.10;99.90;;;;;;5079563;28;20255;-88
2022/09/23 10:10:58;;;;;;;10.03;7.80;;;17.30;99.90;;;;;;5072165;28;20194;-88
2022/09/23 10:13:25;;;;;;;9.00;6.57;;;17.40;99.90;;;;;;5072977;28;20216;-88
2022/09/23 10:15:53;;;;;;;16.37;7.20;;;17.40;99.90;;;;;;5053544;28;20225;-89
2022/09/23 10:18:30;;;;;;;10.47;7.27;;;17.50;99.90;;;;;;5072538;28;20235;-87
2022/09/23 10:21:08;;;;;;;12.73;6.53;;;17.40;99.90;;;;;;5068634;28;20277;-88
2022/09/23 10:23:39;;;;;;;10.37;7.63;;;17.40;99.90;;;;;;5070636;28;20446;-88
2022/09/23 10:26:10;;;;;;;9.13;7.37;;;17.50;99.90;;;;;;5072465;28;20189;-90
2022/09/23 10:28:45;;;;;;;9.33;6.97;;;17.40;99.90;;;;;;5071972;28;20224;-88
2022/09/23 10:31:23;;;;;;;12.43;8.90;;;17.40;99.90;;;;;;5071346;28;20313;-86
2022/09/23 10:33:53;;;;;;;10.03;7.17;;;17.40;99.90;;;;;;5073549;28;20692;-89
2022/09/23 10:36:20;;;;;;;11.57;8.33;;;17.20;99.90;;;;;;5053906;28;20228;-88
2022/09/23 10:38:50;;;;;;;11.73;7.33;;;17.20;99.90;;;;;;5070877;28;20276;-88
2022/09/23 10:48:01;;;;;;;9.63;7.10;;;17.00;99.90;;;;;;5069939;28;20216;-88
2022/09/23 10:50:48;;;;;;;8.43;6.57;;;17.00;99.90;;;;;;5071211;28;20667;-88
2022/09/23 10:53:27;;;;;;;10.00;7.87;;;16.80;99.90;;;;;;5069227;28;20243;-87
2022/09/23 10:56:08;;;;;;;12.30;7.43;;;16.90;99.90;;;;;;5070816;28;20186;-88
2022/09/23 10:58:57;;;;;;;9.77;7.67;;;16.80;99.90;;;;;;5070904;28;20608;-87
2022/09/23 11:01:38;;;;;;;13.37;7.23;;;16.90;99.90;;;;;;5069686;28;20217;-89
2022/09/23 11:04:07;;;;;;;11.83;8.27;;;16.90;99.90;;;;;;5071261;28;20224;-89
2022/09/23 11:06:46;;;;;;;9.60;8.07;;;16.90;99.90;;;;;;5072611;28;20216;-88
2022/09/23 11:09:24;;;;;;;15.13;8.87;;;17.00;99.90;;;;;;5072090;28;20236;-87
2022/09/23 11:12:06;;;;;;;13.57;8.47;;;17.00;99.90;;;;;;5067404;28;20216;-90
2022/09/23 11:14:57;;;;;;;14.17;8.53;;;16.90;99.90;;;;;;5070992;28;20213;-90
2022/09/23 11:17:45;;;;;;;14.30;9.30;;;16.90;99.90;;;;;;5073917;28;20224;-88
2022/09/23 11:20:35;;;;;;;16.53;8.67;;;16.80;99.90;;;;;;5077076;28;20769;-85
2022/09/23 11:23:27;;;;;;;12.73;7.87;;;16.80;99.90;;;;;;5072140;28;20271;-85
2022/09/23 11:26:22;;;;;;;12.57;8.50;;;16.80;99.90;;;;;;5077695;28;20342;-87
2022/09/23 11:29:09;;;;;;;18.47;8.57;;;16.70;99.90;;;;;;5079183;28;20214;-88
2022/09/23 11:31:52;;;;;;;13.63;8.43;;;16.70;99.90;;;;;;5083557;28;20248;-88
2022/09/23 11:34:55;;;;;;;11.83;8.40;;;16.80;99.90;;;;;;5074139;28;20295;-88
2022/09/23 11:37:39;;;;;;;11.50;8.47;;;16.80;99.90;;;;;;5075955;28;20217;-87
2022/09/23 11:40:29;;;;;;;16.77;11.37;;;16.80;99.90;;;;;;5072733;28;20224;-88
2022/09/23 11:43:06;;;;;;;15.60;9.93;;;17.00;99.90;;;;;;5071509;28;20212;-89
2022/09/23 11:45:46;;;;;;;17.23;9.90;;;17.10;99.90;;;;;;5071824;28;20221;-88
2022/09/23 11:48:18;;;;;;;12.70;8.97;;;17.00;99.90;;;;;;5073162;28;20694;-89
2022/09/23 11:50:52;;;;;;;16.13;10.60;;;17.00;99.90;;;;;;5073391;28;20577;-88
2022/09/23 11:53:36;;;;;;;15.57;10.93;;;16.90;99.90;;;;;;5074098;28;20471;-90
2022/09/23 11:56:11;;;;;;;16.13;10.87;;;16.90;99.90;;;;;;5075681;28;20275;-88
2022/09/23 11:58:47;;;;;;;14.57;10.13;;;17.00;99.90;;;;;;5075281;28;20242;-88
2022/09/23 12:01:30;;;;;;;14.13;9.33;;;17.00;99.90;;;;;;5081337;28;20219;-89
2022/09/23 12:04:04;;;;;;;15.47;10.40;;;16.90;99.90;;;;;;5074780;28;20523;-88
2022/09/23 12:06:38;;;;;;;16.27;9.97;;;17.00;99.90;;;;;;5075784;28;20224;-88
2022/09/23 12:09:16;;;;;;;10.83;7.90;;;16.90;99.90;;;;;;5073595;28;20705;-89
2022/09/23 12:12:13;;;;;;;15.53;9.70;;;16.80;99.90;;;;;;5076358;28;20237;-88
2022/09/23 12:14:58;;;;;;;14.10;8.73;;;16.80;99.90;;;;;;5067553;28;20221;-88
2022/09/23 12:17:40;;;;;;;14.97;9.97;;;16.70;99.90;;;;;;5073191;28;20212;-89
2022/09/23 12:20:47;;;;;;;14.57;9.80;;;16.80;99.90;;;;;;5073351;28;20648;-88
2022/09/23 12:23:24;;;;;;;14.20;9.90;;;17.00;99.90;;;;;;5049528;28;20221;-88
2022/09/23 12:25:56;;;;;;;16.40;10.07;;;17.10;99.90;;;;;;5073326;28;20211;-86
2022/09/23 12:28:35;;;;;;;16.43;10.07;;;16.90;99.90;;;;;;5088455;28;20882;-88
2022/09/23 12:31:03;;;;;;;18.13;10.27;;;16.80;99.90;;;;;;5071262;28;20295;-87
2022/09/23 12:33:32;;;;;;;16.00;9.73;;;16.80;99.90;;;;;;5072308;28;20220;-88
2022/09/23 12:36:06;;;;;;;18.23;10.40;;;17.00;99.90;;;;;;5073856;28;20225;-86
2022/09/23 12:38:39;;;;;;;15.93;10.93;;;17.00;99.90;;;;;;5074072;28;20220;-87
2022/09/23 12:41:27;;;;;;;16.30;10.40;;;16.90;99.90;;;;;;5074070;28;20177;-87
2022/09/23 12:43:59;;;;;;;13.63;10.07;;;16.90;99.90;;;;;;5073734;28;20303;-88
2022/09/23 12:46:26;;;;;;;22.60;9.93;;;16.90;99.90;;;;;;5072602;28;20173;-89
2022/09/23 12:48:56;;;;;;;16.87;10.60;;;16.80;99.90;;;;;;5054791;28;20247;-87
2022/09/23 12:51:23;;;;;;;15.23;9.67;;;16.80;99.90;;;;;;5074482;28;20228;-89
2022/09/23 12:53:53;;;;;;;19.00;11.07;;;16.90;99.90;;;;;;5055188;28;20213;-85
2022/09/23 12:56:41;;;;;;;15.00;10.13;;;16.90;99.90;;;;;;5073061;28;20282;-88
2022/09/23 12:59:16;;;;;;;15.77;10.37;;;16.90;99.90;;;;;;5074455;28;20228;-86
2022/09/23 13:01:43;;;;;;;21.40;11.13;;;16.90;99.90;;;;;;5073296;28;20185;-88
2022/09/23 13:07:17;;;;;;;17.83;11.60;;;16.90;99.90;;;;;;5073219;28;20216;-86
2022/09/23 13:09:49;;;;;;;17.07;10.97;;;16.80;99.90;;;;;;5068653;28;20253;-85
2022/09/23 13:12:24;;;;;;;19.53;12.47;;;16.80;99.90;;;;;;5074632;28;20228;-85
2022/09/23 13:14:53;;;;;;;17.37;11.67;;;16.90;99.90;;;;;;5074080;28;20217;-84
2022/09/23 13:17:27;;;;;;;20.93;12.07;;;16.90;99.90;;;;;;5074485;28;20212;-86
2022/09/23 13:19:59;;;;;;;24.13;14.13;;;16.90;99.90;;;;;;5072851;28;21047;-85
2022/09/23 13:22:45;;;;;;;18.97;12.40;;;16.90;99.90;;;;;;5078841;28;20178;-85